Time;durP1;ratioP1;P1;durP2;ratioP2;P2;SDS_P1;SDS_P2;PMS_P1;PMS_P2;Temp;Humidity;BMP_temperature;BMP_pressure;BME280_temperature;BME280_humidity;BME280_pressure;Samples;Min_cycle;Max_cycle;Signal;HPM_P1;HPM_P2
2021/05/13 00:01:30;;;;;;;2.63;2.10;;;7.80;99.90;;;;;;475235;250;27996;-67
2021/05/13 00:03:31;;;;;;;3.83;2.80;;;7.90;99.90;;;;;;475235;250;28075;-66
2021/05/13 00:05:32;;;;;;;4.50;2.70;;;7.80;99.90;;;;;;475233;250;28027;-64
2021/05/13 00:07:33;;;;;;;3.30;2.60;;;7.70;99.90;;;;;;473673;243;27884;-64
2021/05/13 00:09:35;;;;;;;4.97;2.97;;;7.70;99.90;;;;;;470422;252;28030;-66
2021/05/13 00:11:36;;;;;;;2.67;2.20;;;7.70;99.90;;;;;;470356;253;28426;-66
2021/05/13 00:13:37;;;;;;;2.57;2.37;;;7.70;99.90;;;;;;470435;252;28019;-64
2021/05/13 00:15:38;;;;;;;3.73;2.23;;;7.70;99.90;;;;;;470430;250;28712;-64
2021/05/13 00:17:40;;;;;;;2.50;2.00;;;7.70;99.90;;;;;;470463;250;28578;-64
2021/05/13 00:19:41;;;;;;;7.30;2.00;;;7.70;99.90;;;;;;470442;246;28008;-64
2021/05/13 00:21:42;;;;;;;3.97;2.20;;;7.70;99.90;;;;;;470414;252;27896;-66
2021/05/13 00:23:43;;;;;;;2.60;2.10;;;7.60;99.90;;;;;;470419;252;27753;-67
2021/05/13 00:25:47;;;;;;;4.10;2.43;;;7.60;99.90;;;;;;470423;251;28135;-65
2021/05/13 00:27:46;;;;;;;6.90;2.27;;;7.60;99.90;;;;;;470435;251;28022;-66
2021/05/13 00:29:47;;;;;;;4.30;1.90;;;7.50;99.90;;;;;;470420;251;27822;-65
2021/05/13 00:31:48;;;;;;;2.40;2.03;;;7.40;99.90;;;;;;470417;253;28016;-64
2021/05/13 00:33:50;;;;;;;2.33;1.83;;;7.30;99.90;;;;;;470479;250;28084;-67
2021/05/13 00:35:51;;;;;;;3.63;2.60;;;7.40;99.90;;;;;;470474;250;27632;-66
2021/05/13 00:37:52;;;;;;;6.80;2.60;;;7.40;99.90;;;;;;463362;250;27769;-66
2021/05/13 00:39:53;;;;;;;2.90;2.17;;;7.40;99.90;;;;;;462992;256;27870;-65
2021/05/13 00:41:55;;;;;;;2.70;2.50;;;7.40;99.90;;;;;;464015;256;27933;-66
2021/05/13 00:43:59;;;;;;;3.97;2.20;;;7.30;99.90;;;;;;464013;256;27917;-67
2021/05/13 00:45:57;;;;;;;5.50;1.90;;;7.30;99.90;;;;;;463852;256;28040;-65
2021/05/13 00:50:00;;;;;;;2.47;2.07;;;7.20;99.90;;;;;;471323;250;28450;-66
2021/05/13 00:52:01;;;;;;;2.50;2.20;;;7.20;99.90;;;;;;471324;250;28450;-66
2021/05/13 00:54:02;;;;;;;2.23;1.60;;;7.20;99.90;;;;;;471317;250;28559;-68
2021/05/13 00:56:03;;;;;;;3.00;2.10;;;7.20;99.90;;;;;;471310;247;28798;-66
2021/05/13 00:58:07;;;;;;;5.50;2.43;;;7.30;99.90;;;;;;475810;242;28341;-67
2021/05/13 01:00:28;;;;;;;2.93;2.30;;;7.30;99.90;;;;;;478857;248;27860;-65
2021/05/13 01:02:07;;;;;;;3.40;2.08;;;7.30;99.90;;;;;;470427;253;27461;-66
2021/05/13 01:04:08;;;;;;;4.43;2.40;;;7.30;99.90;;;;;;479510;248;27999;-65
2021/05/13 01:06:10;;;;;;;4.30;2.20;;;7.20;99.90;;;;;;478648;248;28145;-66
2021/05/13 01:08:11;;;;;;;3.13;2.07;;;7.20;99.90;;;;;;476182;240;27949;-67
2021/05/13 01:10:12;;;;;;;4.63;2.60;;;7.10;99.90;;;;;;468911;254;28744;-65
2021/05/13 01:12:19;;;;;;;4.57;2.40;;;7.10;99.90;;;;;;473532;251;27738;-66
2021/05/13 01:14:22;;;;;;;5.83;2.07;;;7.00;99.90;;;;;;473475;251;27917;-66
2021/05/13 01:16:45;;;;;;;5.17;2.10;;;7.00;99.90;;;;;;473509;251;27904;-65
2021/05/13 01:18:36;;;;;;;4.73;2.20;;;7.10;99.90;;;;;;473383;251;27916;-66
2021/05/13 01:20:36;;;;;;;3.33;1.77;;;7.10;99.90;;;;;;473499;251;28451;-66
2021/05/13 01:22:37;;;;;;;5.20;2.33;;;7.00;99.90;;;;;;473555;251;28032;-67
2021/05/13 01:24:39;;;;;;;1.67;1.57;;;7.00;99.90;;;;;;473536;251;28422;-66
2021/05/13 01:26:40;;;;;;;1.90;1.80;;;7.00;99.90;;;;;;473527;251;28463;-66
2021/05/13 01:28:41;;;;;;;2.97;2.07;;;6.90;99.90;;;;;;473544;251;28457;-65
2021/05/13 01:30:43;;;;;;;4.20;2.10;;;6.90;99.90;;;;;;473557;251;28643;-66
2021/05/13 01:32:44;;;;;;;3.40;2.20;;;6.80;99.90;;;;;;473535;251;28007;-66
2021/05/13 01:34:45;;;;;;;2.27;2.07;;;6.80;99.90;;;;;;473528;251;27525;-65
2021/05/13 01:36:46;;;;;;;3.07;2.53;;;6.80;99.90;;;;;;473535;251;28033;-66
2021/05/13 01:38:47;;;;;;;4.50;2.33;;;6.80;99.90;;;;;;473542;251;28022;-65
2021/05/13 01:40:49;;;;;;;2.20;2.00;;;6.80;99.90;;;;;;473539;251;27679;-65
2021/05/13 01:42:50;;;;;;;3.17;2.47;;;6.70;99.90;;;;;;473535;251;28032;-67
2021/05/13 01:44:51;;;;;;;9.10;2.23;;;6.70;99.90;;;;;;473537;251;27965;-66
2021/05/13 01:46:52;;;;;;;3.30;3.00;;;6.70;99.90;;;;;;473534;251;28066;-66
2021/05/13 01:48:54;;;;;;;2.77;2.20;;;6.70;99.90;;;;;;473521;251;28914;-65
2021/05/13 01:50:55;;;;;;;3.80;2.63;;;6.80;99.90;;;;;;473535;251;27998;-66
2021/05/13 01:52:56;;;;;;;3.07;2.23;;;6.70;99.90;;;;;;473541;251;27800;-67
2021/05/13 01:54:57;;;;;;;2.90;2.07;;;6.70;99.90;;;;;;473524;251;28804;-65
2021/05/13 01:56:59;;;;;;;2.80;2.17;;;6.70;99.90;;;;;;473523;251;27803;-66
2021/05/13 01:59:00;;;;;;;2.93;2.03;;;6.60;99.90;;;;;;473532;251;28652;-66
2021/05/13 02:01:01;;;;;;;3.50;2.53;;;6.70;99.90;;;;;;473540;251;29370;-65
2021/05/13 02:03:02;;;;;;;3.30;1.92;;;6.70;99.90;;;;;;473542;251;28456;-67
2021/05/13 02:05:04;;;;;;;2.20;1.87;;;6.80;99.90;;;;;;473532;251;27643;-65
2021/05/13 02:07:05;;;;;;;2.77;1.97;;;6.70;99.90;;;;;;473545;251;27910;-66
2021/05/13 02:09:06;;;;;;;3.90;2.23;;;6.80;99.90;;;;;;473520;251;28265;-65
2021/05/13 02:11:07;;;;;;;3.40;2.20;;;6.80;99.90;;;;;;473550;251;28028;-66
2021/05/13 02:13:09;;;;;;;2.70;2.27;;;6.80;99.90;;;;;;473533;251;29024;-67
2021/05/13 02:15:10;;;;;;;6.67;2.70;;;6.80;99.90;;;;;;473542;251;28025;-65
2021/05/13 02:17:11;;;;;;;2.70;2.40;;;6.70;99.90;;;;;;473546;251;27755;-66
2021/05/13 02:19:12;;;;;;;6.93;2.57;;;6.70;99.90;;;;;;473563;251;28927;-66
2021/05/13 02:21:14;;;;;;;4.27;2.30;;;6.70;99.90;;;;;;473558;251;27919;-66
2021/05/13 02:23:15;;;;;;;2.43;2.17;;;6.70;99.90;;;;;;473551;251;28019;-67
2021/05/13 02:25:16;;;;;;;5.27;2.00;;;6.60;99.90;;;;;;473559;251;27932;-66
2021/05/13 02:27:17;;;;;;;5.13;2.27;;;6.60;99.90;;;;;;473551;251;28560;-66
2021/05/13 02:29:19;;;;;;;2.00;1.90;;;6.50;99.90;;;;;;473562;251;27799;-66
2021/05/13 02:31:20;;;;;;;2.20;2.00;;;6.50;99.90;;;;;;473551;251;29132;-66
2021/05/13 02:33:21;;;;;;;2.63;2.03;;;6.40;99.90;;;;;;473556;251;28082;-67
2021/05/13 02:35:22;;;;;;;2.43;1.80;;;6.50;99.90;;;;;;473572;251;28347;-66
2021/05/13 02:37:24;;;;;;;2.97;2.07;;;6.50;99.90;;;;;;472700;241;28851;-65
2021/05/13 02:39:25;;;;;;;2.30;2.03;;;6.50;99.90;;;;;;474681;250;28123;-65
2021/05/13 02:41:27;;;;;;;2.33;2.07;;;6.30;99.90;;;;;;474655;250;28112;-66
2021/05/13 02:43:27;;;;;;;3.15;1.92;;;6.30;99.90;;;;;;474639;250;28933;-65
2021/05/13 02:45:29;;;;;;;3.83;2.10;;;6.20;99.90;;;;;;474678;250;27613;-65
2021/05/13 02:47:30;;;;;;;3.33;2.00;;;6.30;99.90;;;;;;475797;250;28372;-67
2021/05/13 02:49:31;;;;;;;2.40;2.20;;;6.30;99.90;;;;;;475808;249;28895;-65
2021/05/13 02:51:32;;;;;;;2.53;2.30;;;6.40;99.90;;;;;;475815;249;28928;-66
2021/05/13 02:53:34;;;;;;;2.70;2.33;;;6.40;99.90;;;;;;475821;249;28091;-67
2021/05/13 02:55:35;;;;;;;3.30;2.20;;;6.40;99.90;;;;;;475806;249;28588;-66
2021/05/13 02:57:37;;;;;;;4.20;2.13;;;6.40;99.90;;;;;;475811;249;28759;-65
2021/05/13 02:59:44;;;;;;;2.70;2.20;;;6.30;99.90;;;;;;475792;249;29371;-65
2021/05/13 03:01:42;;;;;;;6.60;2.50;;;6.30;99.90;;;;;;475799;249;29472;-66
2021/05/13 03:03:43;;;;;;;2.15;1.98;;;6.20;99.90;;;;;;475805;249;27542;-66
2021/05/13 03:05:44;;;;;;;5.05;2.95;;;6.20;99.90;;;;;;475800;249;27558;-66
2021/05/13 03:07:53;;;;;;;6.87;2.50;;;6.20;99.90;;;;;;475809;249;27531;-65
2021/05/13 03:09:57;;;;;;;5.47;1.80;;;6.20;99.90;;;;;;475804;249;28928;-66
2021/05/13 03:11:54;;;;;;;3.58;2.35;;;6.20;99.90;;;;;;475813;249;27546;-66
2021/05/13 03:13:57;;;;;;;4.20;1.98;;;6.20;99.90;;;;;;475804;249;28100;-66
2021/05/13 03:15:56;;;;;;;2.03;1.92;;;6.10;99.90;;;;;;475802;249;28105;-67
2021/05/13 03:17:58;;;;;;;3.95;1.85;;;6.10;99.90;;;;;;475812;249;27610;-66
2021/05/13 03:19:59;;;;;;;3.37;3.03;;;6.10;99.90;;;;;;475807;249;27608;-66
2021/05/13 03:22:05;;;;;;;7.95;2.20;;;6.20;99.90;;;;;;475806;249;27530;-66
2021/05/13 03:24:25;;;;;;;4.67;2.50;;;6.10;99.90;;;;;;475791;249;27645;-66
2021/05/13 03:26:31;;;;;;;2.83;2.60;;;6.10;99.90;;;;;;475797;247;29362;-65
2021/05/13 03:28:22;;;;;;;2.55;2.15;;;6.00;99.90;;;;;;475813;249;27589;-66
2021/05/13 03:30:24;;;;;;;2.97;2.28;;;6.00;99.90;;;;;;475805;249;27624;-66
2021/05/13 03:32:24;;;;;;;2.17;2.00;;;6.00;99.90;;;;;;475781;249;27563;-66
2021/05/13 03:34:25;;;;;;;3.17;2.10;;;5.90;99.90;;;;;;475812;249;28077;-65
2021/05/13 03:36:27;;;;;;;2.15;1.95;;;5.90;99.90;;;;;;475818;249;29356;-65
2021/05/13 03:38:28;;;;;;;16.87;2.67;;;5.90;99.90;;;;;;475655;246;28106;-66
2021/05/13 03:40:30;;;;;;;3.12;2.60;;;6.00;99.90;;;;;;475123;250;27496;-69
2021/05/13 03:42:30;;;;;;;2.63;2.43;;;5.90;99.90;;;;;;475122;249;27585;-66
2021/05/13 03:44:32;;;;;;;4.85;2.58;;;6.00;99.90;;;;;;475114;250;28058;-66
2021/05/13 03:46:33;;;;;;;2.03;1.92;;;6.00;99.90;;;;;;475152;250;27973;-65
2021/05/13 03:48:34;;;;;;;4.55;2.45;;;6.00;99.90;;;;;;475121;250;27512;-66
2021/05/13 03:50:36;;;;;;;5.07;2.42;;;6.00;99.90;;;;;;475127;250;28004;-67
2021/05/13 03:52:37;;;;;;;3.70;2.30;;;6.00;99.90;;;;;;475124;250;27604;-66
2021/05/13 03:54:38;;;;;;;2.70;2.47;;;5.90;99.90;;;;;;475109;249;27636;-66
2021/05/13 03:56:39;;;;;;;3.40;2.20;;;5.90;99.90;;;;;;475130;250;27590;-66
2021/05/13 03:58:46;;;;;;;4.93;2.45;;;5.90;99.90;;;;;;475119;250;28845;-66
2021/05/13 04:00:48;;;;;;;2.28;2.08;;;5.80;99.90;;;;;;475188;249;27551;-66
2021/05/13 04:02:43;;;;;;;2.85;2.20;;;5.90;99.90;;;;;;475154;249;27629;-65
2021/05/13 04:04:44;;;;;;;2.42;2.25;;;5.90;99.90;;;;;;475110;250;27977;-65
2021/05/13 04:06:46;;;;;;;2.55;2.10;;;5.90;99.90;;;;;;475109;250;28076;-65
2021/05/13 04:08:47;;;;;;;2.35;2.15;;;6.00;99.90;;;;;;475107;250;27517;-66
2021/05/13 04:10:48;;;;;;;3.25;2.17;;;6.10;99.90;;;;;;475098;250;27517;-67
2021/05/13 04:12:52;;;;;;;2.53;2.23;;;6.10;99.90;;;;;;475122;250;27518;-66
2021/05/13 04:14:51;;;;;;;2.87;2.35;;;6.10;99.90;;;;;;475120;249;28964;-66
2021/05/13 04:16:54;;;;;;;2.50;2.30;;;6.00;99.90;;;;;;475129;250;27499;-65
2021/05/13 04:18:53;;;;;;;4.13;2.33;;;6.00;99.90;;;;;;475124;243;29160;-65
2021/05/13 04:20:54;;;;;;;6.05;2.53;;;6.10;99.90;;;;;;475125;250;29320;-67
2021/05/13 04:22:56;;;;;;;3.35;2.33;;;6.10;99.90;;;;;;475116;250;28062;-65
2021/05/13 04:24:57;;;;;;;1.92;1.83;;;6.20;99.90;;;;;;475084;250;27530;-65
2021/05/13 04:26:58;;;;;;;5.70;2.70;;;6.20;99.90;;;;;;475119;250;27499;-65
2021/05/13 04:28:59;;;;;;;3.20;2.33;;;6.20;99.90;;;;;;475105;250;28081;-66
2021/05/13 04:31:01;;;;;;;2.95;2.00;;;6.30;99.90;;;;;;475107;250;27524;-67
2021/05/13 04:33:02;;;;;;;3.63;2.17;;;6.20;99.90;;;;;;475216;244;27619;-66
2021/05/13 04:35:03;;;;;;;2.67;2.05;;;6.20;99.90;;;;;;475237;250;28873;-67
2021/05/13 04:37:04;;;;;;;2.55;2.03;;;6.20;99.90;;;;;;475229;250;27599;-66
2021/05/13 04:39:06;;;;;;;4.63;2.43;;;6.20;99.90;;;;;;475294;243;27507;-66
2021/05/13 04:41:07;;;;;;;2.15;1.95;;;6.10;99.90;;;;;;475856;249;28098;-67
2021/05/13 04:43:08;;;;;;;4.17;2.30;;;6.10;99.90;;;;;;475771;249;27524;-66
2021/05/13 04:45:09;;;;;;;2.28;2.08;;;6.20;99.90;;;;;;475750;249;27886;-66
2021/05/13 04:47:21;;;;;;;6.20;2.20;;;6.20;99.90;;;;;;475753;249;27615;-66
2021/05/13 04:51:13;;;;;;;5.13;2.43;;;6.30;99.90;;;;;;475753;249;27403;-67
2021/05/13 04:53:14;;;;;;;2.90;2.47;;;6.40;99.90;;;;;;475749;249;28879;-66
2021/05/13 04:55:16;;;;;;;2.30;2.10;;;6.50;99.90;;;;;;475759;249;27885;-67
2021/05/13 04:57:17;;;;;;;2.57;2.00;;;6.70;99.90;;;;;;476701;241;28465;-66
2021/05/13 04:59:18;;;;;;;3.20;2.20;;;6.90;99.90;;;;;;485126;244;29280;-66
2021/05/13 05:01:19;;;;;;;2.07;1.97;;;7.10;99.90;;;;;;479033;247;28569;-68
2021/05/13 05:03:21;;;;;;;4.03;2.40;;;7.20;99.90;;;;;;479043;247;28357;-66
2021/05/13 05:05:22;;;;;;;4.80;2.20;;;7.30;99.90;;;;;;479042;247;28623;-67
2021/05/13 05:07:23;;;;;;;2.77;2.57;;;7.50;99.90;;;;;;479041;247;27905;-66
2021/05/13 05:09:24;;;;;;;2.07;1.97;;;7.70;99.90;;;;;;479048;247;27394;-66
2021/05/13 05:11:26;;;;;;;4.23;2.40;;;7.70;99.90;;;;;;479019;247;27887;-66
2021/05/13 05:13:27;;;;;;;2.83;1.97;;;7.80;99.90;;;;;;479027;247;27893;-66
2021/05/13 05:15:28;;;;;;;3.80;2.23;;;8.00;99.90;;;;;;479045;247;27681;-66
2021/05/13 05:17:29;;;;;;;3.70;2.60;;;8.10;99.90;;;;;;479035;247;27954;-66
2021/05/13 05:19:31;;;;;;;2.77;2.57;;;8.20;99.90;;;;;;479031;247;27897;-66
2021/05/13 05:21:32;;;;;;;12.80;3.30;;;8.30;99.90;;;;;;479027;247;27851;-66
2021/05/13 05:23:33;;;;;;;2.73;2.50;;;8.50;99.90;;;;;;479031;247;27880;-66
2021/05/13 05:25:34;;;;;;;3.50;2.57;;;8.60;99.90;;;;;;479020;247;27887;-68
2021/05/13 05:27:36;;;;;;;4.60;2.80;;;8.80;99.90;;;;;;479013;247;27734;-66
2021/05/13 05:29:37;;;;;;;4.87;3.50;;;8.90;99.90;;;;;;479016;247;27512;-66
2021/05/13 05:31:38;;;;;;;5.63;3.00;;;9.00;99.90;;;;;;479026;247;27975;-66
2021/05/13 05:33:39;;;;;;;5.67;2.70;;;9.10;99.90;;;;;;478995;247;28428;-66
2021/05/13 05:35:41;;;;;;;7.13;3.10;;;9.30;99.90;;;;;;479005;247;28390;-67
2021/05/13 05:37:42;;;;;;;3.47;3.17;;;9.40;99.90;;;;;;478167;244;28275;-66
2021/05/13 05:39:43;;;;;;;5.07;3.00;;;9.50;99.90;;;;;;486120;244;28203;-66
2021/05/13 05:41:44;;;;;;;4.87;2.53;;;9.70;99.90;;;;;;485318;245;27970;-66
2021/05/13 05:43:46;;;;;;;2.27;2.10;;;9.80;99.90;;;;;;485300;245;27911;-66
2021/05/13 05:45:48;;;;;;;4.73;2.73;;;9.90;99.90;;;;;;485287;245;27843;-67
2021/05/13 05:47:48;;;;;;;2.57;2.30;;;10.00;99.90;;;;;;485286;245;27963;-66
2021/05/13 05:49:49;;;;;;;2.63;2.43;;;10.00;99.90;;;;;;485282;245;27871;-67
2021/05/13 05:51:51;;;;;;;6.83;2.50;;;10.10;99.90;;;;;;485272;245;27944;-66
2021/05/13 05:53:52;;;;;;;3.67;2.53;;;10.20;99.90;;;;;;485286;245;27837;-66
2021/05/13 05:55:53;;;;;;;3.90;2.80;;;10.40;99.90;;;;;;485289;245;28109;-67
2021/05/13 05:57:54;;;;;;;4.30;2.20;;;10.50;99.90;;;;;;485278;245;28101;-66
2021/05/13 05:59:58;;;;;;;3.03;2.20;;;10.70;99.90;;;;;;485313;245;28972;-66
2021/05/13 06:02:00;;;;;;;3.60;2.20;;;10.90;99.90;;;;;;485294;245;28489;-67
2021/05/13 06:04:02;;;;;;;2.27;2.00;;;;;;;;;;485278;245;28572;-67
2021/05/13 06:06:03;;;;;;;3.30;1.93;;;11.10;99.90;;;;;;485305;244;27294;-66
2021/05/13 06:08:05;;;;;;;2.87;2.33;;;11.20;99.90;;;;;;482810;237;28479;-67
2021/05/13 06:10:06;;;;;;;2.93;1.80;;;11.30;99.90;;;;;;481236;247;28713;-67
2021/05/13 06:12:08;;;;;;;5.07;2.27;;;;;;;;;;481240;247;28617;-67
2021/05/13 06:14:09;;;;;;;3.40;1.73;;;11.40;99.90;;;;;;481247;247;27218;-66
2021/05/13 06:16:11;;;;;;;3.67;2.03;;;11.40;99.90;;;;;;481250;247;28130;-66
2021/05/13 06:18:12;;;;;;;2.37;1.90;;;11.50;99.90;;;;;;481244;247;28521;-66
2021/05/13 06:20:13;;;;;;;3.63;1.80;;;11.50;99.90;;;;;;481242;247;28674;-66
2021/05/13 06:22:14;;;;;;;1.70;1.60;;;11.50;99.90;;;;;;481241;247;29031;-66
2021/05/13 06:24:18;;;;;;;2.37;2.07;;;11.50;99.90;;;;;;481223;247;28520;-66
2021/05/13 06:26:17;;;;;;;2.30;1.90;;;11.50;99.90;;;;;;481239;247;28544;-66
2021/05/13 06:28:18;;;;;;;1.67;1.57;;;11.50;99.90;;;;;;481249;245;28636;-67
2021/05/13 06:30:19;;;;;;;4.30;1.90;;;11.40;99.90;;;;;;481274;247;28266;-66
2021/05/13 06:32:21;;;;;;;6.30;2.20;;;11.40;99.90;;;;;;481250;247;28515;-67
2021/05/13 06:34:22;;;;;;;5.60;2.03;;;11.40;99.90;;;;;;481244;247;28182;-66
2021/05/13 06:36:23;;;;;;;2.63;1.90;;;11.40;99.90;;;;;;481242;247;28429;-66
2021/05/13 06:38:27;;;;;;;3.00;1.90;;;11.50;99.90;;;;;;481246;247;28335;-68
2021/05/13 06:40:26;;;;;;;1.83;1.73;;;11.50;99.90;;;;;;481243;247;28196;-66
2021/05/13 06:42:27;;;;;;;2.07;1.87;;;11.50;99.90;;;;;;481230;247;28208;-67
2021/05/13 06:44:28;;;;;;;4.17;1.90;;;11.50;99.90;;;;;;481233;247;28193;-66
2021/05/13 06:46:29;;;;;;;4.60;1.60;;;11.50;99.90;;;;;;481244;247;28214;-66
2021/05/13 06:48:31;;;;;;;3.50;1.87;;;11.60;99.90;;;;;;481240;247;28765;-68
2021/05/13 06:50:32;;;;;;;4.87;1.60;;;11.60;99.90;;;;;;481224;247;28985;-66
2021/05/13 06:52:33;;;;;;;2.73;1.77;;;11.60;99.90;;;;;;481247;247;28682;-66
2021/05/13 06:54:35;;;;;;;2.40;1.70;;;11.60;99.90;;;;;;481246;247;28174;-66
2021/05/13 06:56:36;;;;;;;3.43;1.90;;;11.60;99.90;;;;;;481250;247;28450;-66
2021/05/13 06:58:37;;;;;;;4.03;1.80;;;11.60;99.90;;;;;;481242;247;28163;-66
2021/05/13 07:00:38;;;;;;;1.90;1.80;;;11.60;99.90;;;;;;481244;247;28211;-67
2021/05/13 07:02:40;;;;;;;2.33;1.53;;;11.80;99.90;;;;;;481236;247;28094;-66
2021/05/13 07:04:41;;;;;;;2.73;1.83;;;11.90;99.90;;;;;;481267;247;27947;-66
2021/05/13 07:06:42;;;;;;;5.17;2.00;;;11.90;99.90;;;;;;481255;247;28540;-66
2021/05/13 07:08:43;;;;;;;2.00;1.70;;;12.00;99.90;;;;;;485547;242;27964;-66
2021/05/13 07:10:45;;;;;;;5.47;2.00;;;12.00;99.90;;;;;;491103;241;29216;-67
2021/05/13 07:12:46;;;;;;;2.23;1.67;;;12.10;99.90;;;;;;491122;241;28534;-66
2021/05/13 07:14:47;;;;;;;3.50;1.90;;;12.20;99.90;;;;;;491117;241;28903;-67
2021/05/13 07:16:48;;;;;;;2.33;1.50;;;12.30;99.90;;;;;;491129;241;28419;-66
2021/05/13 07:18:50;;;;;;;1.83;1.70;;;12.40;99.90;;;;;;491112;241;28204;-66
2021/05/13 07:20:51;;;;;;;4.23;1.77;;;12.50;99.90;;;;;;491123;241;28289;-66
2021/05/13 07:22:52;;;;;;;2.00;1.60;;;12.50;99.90;;;;;;491107;241;28295;-67
2021/05/13 07:24:53;;;;;;;2.60;1.87;;;12.60;99.90;;;;;;491109;241;28327;-66
2021/05/13 07:26:55;;;;;;;2.37;1.80;;;12.60;99.90;;;;;;491105;241;28112;-66
2021/05/13 07:28:56;;;;;;;2.80;1.87;;;12.70;99.90;;;;;;491127;242;28086;-67
2021/05/13 07:30:57;;;;;;;5.03;2.20;;;12.80;99.90;;;;;;491094;241;28232;-66
2021/05/13 07:32:58;;;;;;;2.83;2.03;;;12.90;99.90;;;;;;491138;241;28308;-67
2021/05/13 07:35:00;;;;;;;5.00;1.87;;;12.90;99.90;;;;;;491113;241;28701;-67
2021/05/13 07:37:02;;;;;;;2.40;1.73;;;12.90;99.90;;;;;;491111;241;28686;-67
2021/05/13 07:39:02;;;;;;;4.80;1.73;;;13.00;99.90;;;;;;491049;242;28689;-66
2021/05/13 07:41:05;;;;;;;6.73;2.17;;;13.00;99.90;;;;;;491101;242;28900;-66
2021/05/13 07:43:05;;;;;;;3.67;1.90;;;13.10;99.90;;;;;;491062;241;28231;-67
2021/05/13 07:45:06;;;;;;;2.70;1.57;;;13.10;99.90;;;;;;491093;241;28095;-67
2021/05/13 07:47:10;;;;;;;3.17;1.80;;;13.10;99.90;;;;;;491109;241;28314;-67
2021/05/13 07:49:08;;;;;;;2.37;1.63;;;13.10;99.90;;;;;;491032;242;28273;-66
2021/05/13 07:51:10;;;;;;;11.40;2.30;;;13.20;99.90;;;;;;491097;241;28263;-66
2021/05/13 07:53:11;;;;;;;4.70;1.60;;;13.30;99.90;;;;;;491103;241;28353;-67
2021/05/13 07:55:12;;;;;;;1.97;1.70;;;13.40;99.90;;;;;;491116;241;28402;-66
2021/05/13 07:57:13;;;;;;;7.37;2.00;;;13.30;99.90;;;;;;491086;241;28422;-67
2021/05/13 07:59:15;;;;;;;2.77;1.60;;;13.40;99.90;;;;;;491109;241;28649;-66
2021/05/13 08:01:16;;;;;;;3.80;2.27;;;13.60;99.90;;;;;;491102;241;28640;-66
2021/05/13 08:03:17;;;;;;;1.97;1.53;;;13.60;99.90;;;;;;491102;241;28554;-67
2021/05/13 08:05:18;;;;;;;2.47;1.87;;;13.50;99.90;;;;;;491091;241;28086;-66
2021/05/13 08:07:22;;;;;;;5.97;2.10;;;13.70;99.90;;;;;;491095;241;28192;-67
2021/05/13 08:09:21;;;;;;;2.83;1.40;;;13.80;99.90;;;;;;491029;242;28184;-66
2021/05/13 08:11:22;;;;;;;3.40;1.80;;;13.80;99.90;;;;;;491091;241;28181;-66
2021/05/13 08:13:23;;;;;;;3.43;1.60;;;13.60;99.90;;;;;;491116;241;28093;-67
2021/05/13 08:15:25;;;;;;;6.30;1.80;;;13.60;99.90;;;;;;491102;242;28312;-66
2021/05/13 08:17:26;;;;;;;5.00;1.57;;;13.60;99.90;;;;;;491107;241;28306;-66
2021/05/13 08:19:27;;;;;;;4.77;1.60;;;13.70;99.90;;;;;;491112;241;28190;-67
2021/05/13 08:21:28;;;;;;;2.33;1.70;;;13.90;99.90;;;;;;491101;241;28330;-66
2021/05/13 08:23:30;;;;;;;2.70;1.80;;;14.00;99.90;;;;;;491104;241;28785;-68
2021/05/13 08:25:31;;;;;;;2.10;1.70;;;14.10;99.90;;;;;;491081;241;29033;-66
2021/05/13 08:27:32;;;;;;;2.53;1.63;;;14.10;99.90;;;;;;491130;241;28659;-67
2021/05/13 08:29:33;;;;;;;2.30;1.30;;;14.00;99.90;;;;;;491111;241;28406;-67
2021/05/13 08:31:35;;;;;;;3.53;1.63;;;14.10;99.90;;;;;;491096;242;28192;-67
2021/05/13 08:33:36;;;;;;;2.50;1.60;;;14.20;99.90;;;;;;491104;241;28223;-68
2021/05/13 08:35:37;;;;;;;10.80;2.20;;;14.30;99.90;;;;;;491100;241;28301;-67
2021/05/13 08:37:40;;;;;;;2.40;1.60;;;14.60;99.90;;;;;;491091;241;28317;-67
2021/05/13 08:39:40;;;;;;;5.83;2.10;;;14.50;99.90;;;;;;491056;241;28422;-67
2021/05/13 08:41:41;;;;;;;2.00;1.30;;;14.60;99.90;;;;;;491104;241;28389;-67
2021/05/13 08:43:43;;;;;;;3.60;1.60;;;14.70;99.90;;;;;;491116;241;29155;-66
2021/05/13 08:45:43;;;;;;;2.93;1.40;;;14.80;99.90;;;;;;491065;241;28719;-67
2021/05/13 08:47:48;;;;;;;1.33;1.23;;;14.80;99.90;;;;;;491072;241;29298;-66
2021/05/13 08:49:49;;;;;;;2.40;1.60;;;14.90;99.90;;;;;;491088;241;28801;-66
2021/05/13 08:51:50;;;;;;;2.17;1.43;;;15.10;99.90;;;;;;491075;241;28717;-67
2021/05/13 08:53:52;;;;;;;2.70;1.80;;;15.10;99.90;;;;;;491103;241;28839;-67
2021/05/13 08:55:53;;;;;;;1.83;1.33;;;15.00;99.90;;;;;;491076;241;28728;-68
2021/05/13 08:57:54;;;;;;;4.47;2.07;;;14.90;99.90;;;;;;491086;241;29214;-66
2021/05/13 08:59:55;;;;;;;3.20;2.13;;;14.80;99.90;;;;;;491100;241;29220;-67
2021/05/13 09:01:56;;;;;;;2.43;1.77;;;14.70;99.90;;;;;;491088;241;29280;-67
2021/05/13 09:04:02;;;;;;;6.03;2.10;;;14.60;99.90;;;;;;491099;241;28821;-66
2021/05/13 09:06:01;;;;;;;4.53;2.10;;;14.50;99.90;;;;;;491013;242;28825;-67
2021/05/13 09:08:03;;;;;;;4.17;2.10;;;14.40;99.90;;;;;;491104;241;28808;-66
2021/05/13 09:10:04;;;;;;;5.07;2.43;;;14.40;99.90;;;;;;491093;241;28813;-66
2021/05/13 09:12:05;;;;;;;3.30;2.50;;;14.40;99.90;;;;;;491094;242;29240;-67
2021/05/13 09:14:07;;;;;;;4.53;1.90;;;14.30;99.90;;;;;;491099;241;29284;-66
2021/05/13 09:16:08;;;;;;;5.20;1.90;;;14.30;99.90;;;;;;491105;241;29174;-66
2021/05/13 09:18:14;;;;;;;5.77;2.13;;;14.30;99.90;;;;;;491095;241;28719;-66
2021/05/13 09:20:10;;;;;;;6.57;2.57;;;14.20;99.90;;;;;;490899;242;28822;-67
2021/05/13 09:22:12;;;;;;;4.80;2.10;;;14.10;99.90;;;;;;491103;241;28740;-68
2021/05/13 09:24:13;;;;;;;5.40;2.00;;;14.20;99.90;;;;;;491099;241;28739;-66
2021/05/13 09:26:15;;;;;;;3.33;2.00;;;14.20;99.90;;;;;;491097;241;28738;-67
2021/05/13 09:28:15;;;;;;;4.23;2.00;;;14.20;99.90;;;;;;491043;242;28733;-66
2021/05/13 09:30:21;;;;;;;4.37;2.00;;;14.10;99.90;;;;;;491079;242;28722;-67
2021/05/13 09:32:18;;;;;;;2.50;2.03;;;14.10;99.90;;;;;;490965;242;28840;-67
2021/05/13 09:34:19;;;;;;;2.67;2.17;;;14.20;99.90;;;;;;491095;242;28750;-66
2021/05/13 09:36:20;;;;;;;3.77;2.10;;;14.20;99.90;;;;;;491089;241;29184;-66
2021/05/13 09:38:22;;;;;;;4.20;1.97;;;14.30;99.90;;;;;;496943;237;28862;-66
2021/05/13 09:40:23;;;;;;;4.60;1.70;;;14.40;99.90;;;;;;501289;237;29035;-67
2021/05/13 09:42:24;;;;;;;2.30;1.50;;;14.60;99.90;;;;;;501315;237;28640;-68
2021/05/13 09:44:25;;;;;;;4.30;1.93;;;14.60;99.90;;;;;;501298;237;28607;-66
2021/05/13 09:46:27;;;;;;;4.30;1.80;;;14.60;99.90;;;;;;501289;237;28636;-66
2021/05/13 09:48:28;;;;;;;2.97;1.90;;;14.50;99.90;;;;;;501294;237;28636;-67
2021/05/13 09:50:29;;;;;;;2.80;1.60;;;14.60;99.90;;;;;;501329;237;28703;-66
2021/05/13 09:52:30;;;;;;;1.73;1.63;;;14.70;99.90;;;;;;501304;237;28617;-67
2021/05/13 09:54:32;;;;;;;2.23;1.70;;;14.80;99.90;;;;;;501283;237;28605;-67
2021/05/13 09:56:33;;;;;;;2.87;1.83;;;15.00;99.90;;;;;;501300;237;28708;-67
2021/05/13 09:58:34;;;;;;;1.47;1.37;;;15.30;99.90;;;;;;484894;237;28932;-67
2021/05/13 10:00:35;;;;;;;3.63;1.77;;;15.70;99.90;;;;;;473345;250;29170;-68
2021/05/13 10:02:37;;;;;;;2.70;1.90;;;16.00;99.90;;;;;;480639;245;29249;-68
2021/05/13 10:04:38;;;;;;;3.20;2.00;;;15.70;99.90;;;;;;473327;250;29152;-67
2021/05/13 10:06:39;;;;;;;3.03;1.97;;;15.60;99.90;;;;;;480606;245;28821;-68
2021/05/13 10:08:40;;;;;;;2.23;1.60;;;15.30;99.90;;;;;;473329;250;28782;-66
2021/05/13 10:10:42;;;;;;;3.00;1.77;;;15.20;99.90;;;;;;480631;245;28902;-66
2021/05/13 10:12:43;;;;;;;2.90;1.70;;;15.10;99.90;;;;;;473335;250;28735;-68
2021/05/13 10:14:44;;;;;;;3.93;1.77;;;15.10;99.90;;;;;;480614;245;28815;-66
2021/05/13 10:16:45;;;;;;;4.77;1.63;;;15.00;99.90;;;;;;473336;250;28740;-66
2021/05/13 10:18:47;;;;;;;2.17;1.97;;;15.00;99.90;;;;;;493862;239;28668;-66
2021/05/13 10:20:48;;;;;;;2.70;1.83;;;15.10;99.90;;;;;;496924;239;28703;-66
2021/05/13 10:22:49;;;;;;;2.30;1.90;;;15.10;99.90;;;;;;496924;239;28872;-66
2021/05/13 10:24:50;;;;;;;4.33;1.90;;;15.20;99.90;;;;;;496921;239;29253;-66
2021/05/13 10:26:52;;;;;;;4.47;1.70;;;15.20;99.90;;;;;;496930;239;29109;-66
2021/05/13 10:28:53;;;;;;;4.63;1.90;;;15.00;99.90;;;;;;496928;239;29353;-66
2021/05/13 10:30:54;;;;;;;3.97;2.20;;;15.00;99.90;;;;;;496932;239;28766;-66
2021/05/13 10:32:55;;;;;;;5.63;1.87;;;14.90;99.90;;;;;;496950;239;28685;-66
2021/05/13 10:34:57;;;;;;;4.60;1.93;;;15.00;99.90;;;;;;496929;239;28746;-66
2021/05/13 10:36:58;;;;;;;4.17;1.97;;;14.90;99.90;;;;;;496926;239;29002;-67
2021/05/13 10:38:59;;;;;;;3.30;1.93;;;14.90;99.90;;;;;;496940;239;28709;-66
2021/05/13 10:41:03;;;;;;;3.70;1.87;;;15.00;99.90;;;;;;496951;237;28772;-66